Time;durP1;ratioP1;P1;durP2;ratioP2;P2;SDS_P1;SDS_P2;PMS_P1;PMS_P2;Temp;Humidity;BMP_temperature;BMP_pressure;BME280_temperature;BME280_humidity;BME280_pressure;Samples;Min_cycle;Max_cycle;Signal;HPM_P1;HPM_P2
2021/01/22 00:00:57;;;;;;;3.10;2.05;;;;;;;2.18;87.10;97700.00;4882818;29;20096;-79
2021/01/22 00:03:48;;;;;;;3.03;1.40;;;;;;;1.98;88.13;97678.56;4887485;29;20172;-76
2021/01/22 00:06:16;;;;;;;3.95;1.35;;;;;;;1.94;87.14;97672.88;4893378;29;20035;-75
2021/01/22 00:08:42;;;;;;;0.63;0.63;;;;;;;2.01;87.65;97691.47;4885447;29;20025;-77
2021/01/22 00:11:07;;;;;;;1.17;0.60;;;;;;;1.70;87.53;97657.38;4874786;29;20546;-77
2021/01/22 00:16:24;;;;;;;3.00;1.83;;;;;;;1.75;87.72;97678.09;4883822;29;20033;-76
2021/01/22 00:18:49;;;;;;;4.20;2.10;;;;;;;2.00;88.20;97711.41;4899102;29;20032;-78
2021/01/22 00:21:15;;;;;;;7.85;1.92;;;;;;;1.98;87.11;97697.41;4893817;29;20048;-76
2021/01/22 00:23:40;;;;;;;1.50;1.40;;;;;;;1.91;87.25;97687.75;4895282;29;20021;-77
2021/01/22 00:26:07;;;;;;;1.98;1.50;;;;;;;1.89;87.22;97689.09;4887367;29;20029;-77
2021/01/22 00:28:36;;;;;;;1.83;1.73;;;;;;;1.91;87.71;97698.53;4898687;29;20020;-75
2021/01/22 00:31:07;;;;;;;1.08;1.00;;;;;;;1.86;87.45;97703.94;4885988;29;20024;-76
2021/01/22 00:33:41;;;;;;;0.88;0.88;;;;;;;1.64;87.54;97676.53;4890218;29;20036;-79
2021/01/22 00:36:31;;;;;;;3.40;2.10;;;;;;;1.62;87.73;97678.69;4914378;29;20037;-80
2021/01/22 00:39:18;;;;;;;4.20;2.03;;;;;;;1.74;87.55;97700.75;4897691;29;20039;-79
2021/01/22 00:41:47;;;;;;;6.40;2.70;;;;;;;1.88;88.05;97709.03;4886500;29;20033;-76
2021/01/22 00:44:12;;;;;;;7.15;2.20;;;;;;;1.70;87.35;97691.59;4880910;29;20024;-76
2021/01/22 00:46:45;;;;;;;2.90;2.67;;;;;;;1.79;87.49;97694.53;4887889;29;20044;-80
2021/01/22 00:49:14;;;;;;;1.48;1.38;;;;;;;1.96;87.01;97718.44;4874118;29;20085;-77
2021/01/22 00:51:47;;;;;;;2.33;2.08;;;;;;;1.96;87.42;97721.94;4881663;29;20068;-82
2021/01/22 00:54:18;;;;;;;3.38;2.10;;;;;;;1.99;88.06;97726.00;4861272;29;20033;-80
2021/01/22 00:56:54;;;;;;;;;;;;;;;;;;;;;
2021/01/22 00:59:23;;;;;;;8.27;1.70;;;;;;;1.93;87.29;97717.13;4892165;29;20089;-80
2021/01/22 01:01:51;;;;;;;6.22;2.10;;;;;;;1.70;87.74;97697.00;4861958;29;20097;-77
2021/01/22 01:04:17;;;;;;;1.83;1.73;;;;;;;1.50;87.86;97682.47;4846901;29;20036;-76
2021/01/22 01:06:45;;;;;;;4.00;2.03;;;;;;;1.77;88.01;97727.16;4876332;29;20503;-78
2021/01/22 01:09:17;;;;;;;1.50;1.40;;;;;;;1.79;87.98;97738.44;4885221;29;20025;-77
2021/01/22 01:15:07;;;;;;;3.60;1.90;;;;;;;1.63;86.83;97734.97;4876063;29;20036;-79
2021/01/22 01:21:07;;;;;;;8.65;2.08;;;;;;;1.45;87.14;97730.19;4872906;29;20036;-78
2021/01/22 01:23:33;;;;;;;3.22;1.60;;;;;;;1.43;87.62;97738.53;4883161;29;20039;-79
2021/01/22 01:26:20;;;;;;;;;;;;;;;;;;;;;
2021/01/22 01:29:00;;;;;;;3.03;1.75;;;;;;;1.41;87.71;97756.84;4879893;29;20100;-77
2021/01/22 01:31:26;;;;;;;2.53;1.70;;;;;;;1.27;87.19;97729.69;4875380;29;20029;-79
2021/01/22 01:34:23;;;;;;;6.82;1.50;;;;;;;1.28;88.00;97736.66;4873663;29;20370;-78
2021/01/22 01:36:51;;;;;;;4.85;1.50;;;;;;;1.05;87.74;97703.03;4877643;29;20044;-77
2021/01/22 01:39:24;;;;;;;9.35;2.13;;;;;;;1.31;86.86;97749.56;4851466;29;20056;-77
2021/01/22 01:42:14;;;;;;;1.35;1.08;;;;;;;1.06;87.46;97728.06;4865449;29;20089;-76
2021/01/22 01:49:39;;;;;;;4.43;2.88;;;;;;;1.15;86.83;97746.09;4851263;29;20052;-76
2021/01/22 01:52:31;;;;;;;3.15;1.30;;;;;;;1.15;87.92;97764.94;4786331;29;20047;-78
2021/01/22 01:55:35;;;;;;;;;;;;;;;;;;;;;
2021/01/22 01:58:12;;;;;;;6.40;1.30;;;;;;;1.18;88.29;97767.13;4806012;29;20444;-76
2021/01/22 02:01:15;;;;;;;2.78;1.65;;;;;;;1.31;87.61;97783.78;4815118;29;20054;-79
2021/01/22 02:03:59;;;;;;;7.15;1.48;;;;;;;1.26;88.80;97773.81;4791051;29;20054;-79
2021/01/22 02:06:25;;;;;;;4.25;1.83;;;;;;;1.16;88.70;97758.47;4815243;29;20048;-78
2021/01/22 02:08:54;;;;;;;4.97;1.85;;;;;;;1.04;88.60;97739.91;4885592;29;20415;-78
2021/01/22 02:11:52;;;;;;;18.23;1.52;;;;;;;1.22;88.46;97756.59;4887409;29;20044;-78
2021/01/22 02:15:01;;;;;;;4.40;1.15;;;;;;;1.45;88.32;97782.16;4870870;29;20062;-80
2021/01/22 02:18:23;;;;;;;0.85;0.70;;;;;;;1.26;88.51;97756.88;4868124;29;20029;-78
2021/01/22 02:24:54;;;;;;;3.67;1.63;;;;;;;1.61;89.02;97785.66;4816571;29;20431;-80
2021/01/22 02:40:56;;;;;;;1.25;0.90;;;;;;;1.62;88.98;97802.59;4806186;29;20119;-82
2021/01/22 02:43:46;;;;;;;4.82;1.38;;;;;;;1.59;88.26;97803.94;4826588;29;20066;-82
2021/01/22 02:47:04;;;;;;;6.53;1.15;;;;;;;1.22;88.03;97751.22;4870974;29;20077;-80
2021/01/22 02:49:32;;;;;;;3.30;1.27;;;;;;;1.28;88.35;97781.63;4880065;29;20052;-81
2021/01/22 02:52:00;;;;;;;4.78;0.85;;;;;;;1.46;87.68;97805.34;4851460;29;20036;-80
2021/01/22 02:54:39;;;;;;;;;;;;;;;;;;;;;
2021/01/22 02:57:35;;;;;;;4.82;1.13;;;;;;;1.39;87.31;97810.19;4855229;29;20033;-81
2021/01/22 03:00:54;;;;;;;5.97;1.30;;;;;;;1.30;87.92;97812.59;4865633;29;20081;-80
2021/01/22 03:03:48;;;;;;;2.42;1.20;;;;;;;1.04;87.83;97782.19;4820992;29;20065;-80
2021/01/22 03:06:27;;;;;;;1.25;1.10;;;;;;;1.11;88.52;97800.72;4834853;29;20040;-83
2021/01/22 03:09:03;;;;;;;3.20;1.00;;;;;;;0.85;88.16;97773.81;4872415;29;20041;-83
2021/01/22 03:11:46;;;;;;;1.63;0.80;;;;;;;1.07;87.58;97807.72;4865360;29;20037;-82
2021/01/22 03:14:13;;;;;;;1.95;0.75;;;;;;;0.86;87.52;97778.09;4868129;29;20096;-82
2021/01/22 03:16:51;;;;;;;2.17;0.82;;;;;;;0.87;88.24;97788.59;4869200;29;20085;-82
2021/01/22 03:19:19;;;;;;;6.60;1.77;;;;;;;1.00;87.97;97808.00;4861709;29;20025;-81
2021/01/22 03:22:18;;;;;;;1.40;1.27;;;;;;;1.17;88.25;97835.47;4878274;29;20035;-82
2021/01/22 03:24:43;;;;;;;2.35;1.45;;;;;;;0.97;88.54;97808.53;4844486;29;20052;-81
2021/01/22 03:27:39;;;;;;;3.70;1.20;;;;;;;0.85;87.82;97806.09;4867118;29;20029;-79
2021/01/22 03:30:08;;;;;;;2.70;0.98;;;;;;;0.91;88.49;97804.25;4849742;29;20120;-80
2021/01/22 03:32:54;;;;;;;13.20;1.63;;;;;;;1.21;88.35;97841.94;4858031;29;20093;-80
2021/01/22 03:38:49;;;;;;;;;;;;;;;;;;;;;
2021/01/22 03:41:20;;;;;;;4.40;1.45;;;;;;;1.12;88.14;97842.75;4811347;29;20141;-81
2021/01/22 03:51:05;;;;;;;5.97;1.00;;;;;;;1.16;88.20;97860.78;4887912;29;20036;-81
2021/01/22 03:57:07;;;;;;;2.28;0.85;;;;;;;0.94;88.13;97854.81;4844718;29;20124;-82
2021/01/22 04:03:01;;;;;;;2.28;0.70;;;;;;;0.64;88.44;97816.81;4893027;29;20028;-80
2021/01/22 04:05:27;;;;;;;1.00;0.82;;;;;;;0.76;88.07;97845.34;4889570;29;20115;-80
2021/01/22 04:07:52;;;;;;;1.10;0.57;;;;;;;0.81;88.02;97859.63;4897678;29;20547;-79
2021/01/22 04:10:18;;;;;;;1.63;0.70;;;;;;;0.79;88.06;97872.53;4937301;23;20081;-81
2021/01/22 04:12:57;;;;;;;3.65;0.77;;;;;;;0.83;88.06;97873.63;4929741;29;20027;-77
2021/01/22 04:15:48;;;;;;;7.15;0.68;;;;;;;0.78;87.84;97873.63;4927673;29;20035;-76
2021/01/22 04:18:16;;;;;;;1.08;0.80;;;;;;;0.73;87.15;97868.22;4918238;29;20035;-80
2021/01/22 04:20:41;;;;;;;1.08;0.73;;;;;;;0.75;87.89;97881.41;4919255;29;20050;-78
2021/01/22 04:23:09;;;;;;;5.43;1.02;;;;;;;0.73;88.07;97879.00;4933327;29;20482;-78
2021/01/22 04:25:35;;;;;;;0.50;0.50;;;;;;;0.70;87.79;97884.88;4916144;29;20047;-78
2021/01/22 04:28:00;;;;;;;2.33;0.40;;;;;;;0.54;88.11;97869.75;4929241;29;20019;-77
2021/01/22 04:30:25;;;;;;;1.17;0.60;;;;;;;0.40;87.31;97864.88;4897152;29;20474;-78
2021/01/22 04:32:51;;;;;;;0.63;0.50;;;;;;;0.46;87.14;97879.94;4930218;29;20044;-78
2021/01/22 04:35:19;;;;;;;2.10;0.60;;;;;;;0.32;87.09;97871.56;4929805;29;20027;-77
2021/01/22 04:37:44;;;;;;;1.00;0.77;;;;;;;0.39;86.59;97890.13;4927506;29;20040;-77
2021/01/22 04:40:11;;;;;;;2.08;0.40;;;;;;;0.16;87.20;97870.66;4924657;28;20040;-78
2021/01/22 04:43:19;;;;;;;;;;;;;;;;;;;;;
2021/01/22 04:45:54;;;;;;;3.35;1.17;;;;;;;0.24;88.12;97898.13;4928946;29;20031;-78
2021/01/22 04:48:41;;;;;;;5.20;1.58;;;;;;;0.11;87.14;97888.66;4944001;28;20394;-80
2021/01/22 04:51:07;;;;;;;1.05;0.98;;;;;;;-0.07;87.57;97868.41;4925322;29;20032;-79
2021/01/22 04:54:03;;;;;;;1.48;0.73;;;;;;;0.05;87.89;97893.19;4953972;28;20849;-78
2021/01/22 04:56:35;;;;;;;1.35;0.68;;;;;;;0.08;87.84;97895.34;4918156;29;20031;-80
2021/01/22 04:59:06;;;;;;;1.70;0.57;;;;;;;0.00;87.51;97887.78;4917920;29;20485;-76
2021/01/22 05:01:32;;;;;;;3.58;1.13;;;;;;;0.07;87.82;97904.47;4912671;29;20020;-77
2021/01/22 05:04:42;;;;;;;2.78;0.77;;;;;;;0.07;87.27;97904.47;4935037;29;20036;-77
2021/01/22 05:07:09;;;;;;;1.35;0.60;;;;;;;0.18;87.04;97926.84;4904530;29;20035;-78
2021/01/22 05:09:39;;;;;;;3.75;1.15;;;;;;;0.19;87.22;97924.97;4924437;29;20027;-78
2021/01/22 05:12:05;;;;;;;0.82;0.65;;;;;;;0.04;88.00;97909.56;4931491;29;20052;-80
2021/01/22 05:18:29;;;;;;;3.55;2.15;;;;;;;0.12;87.02;97922.53;4890351;29;20106;-77
2021/01/22 05:21:07;;;;;;;4.45;1.00;;;;;;;-0.06;87.35;97911.13;4931489;29;20036;-78
2021/01/22 05:23:34;;;;;;;1.30;0.75;;;;;;;-0.05;87.96;97911.91;4914647;29;20351;-79
2021/01/22 05:26:11;;;;;;;2.35;1.00;;;;;;;0.07;88.44;97933.22;4926010;29;20067;-78
2021/01/22 05:28:45;;;;;;;1.45;1.33;;;;;;;-0.12;87.39;97909.44;4943826;29;20023;-79
2021/01/22 05:31:58;;;;;;;;;;;;;;;;;;;;;
2021/01/22 05:34:43;;;;;;;1.20;0.88;;;;;;;0.06;88.65;97936.97;4942326;28;20453;-81
2021/01/22 05:37:27;;;;;;;10.73;1.35;;;;;;;0.03;88.20;97929.44;4945157;28;20152;-80
2021/01/22 05:40:14;;;;;;;1.10;0.88;;;;;;;0.02;87.62;97928.63;4914343;29;20038;-80
2021/01/22 05:42:53;;;;;;;4.18;0.88;;;;;;;0.06;88.89;97940.50;4916699;29;20031;-80
2021/01/22 05:45:42;;;;;;;1.35;0.70;;;;;;;0.08;87.69;97943.72;4945714;28;20047;-80
2021/01/22 05:48:25;;;;;;;0.60;0.55;;;;;;;-0.02;88.40;97943.66;4942512;28;20046;-77
2021/01/22 05:51:06;;;;;;;1.38;0.52;;;;;;;-0.17;87.52;97924.75;4915567;29;20442;-77
2021/01/22 05:53:31;;;;;;;0.90;0.80;;;;;;;-0.06;87.91;97956.78;4913453;29;20020;-78
2021/01/22 05:56:12;;;;;;;0.95;0.75;;;;;;;-0.04;87.76;97956.53;4908562;29;20038;-78
2021/01/22 05:58:39;;;;;;;6.20;0.80;;;;;;;-0.13;88.65;97947.31;4945409;28;20118;-77
2021/01/22 06:01:12;;;;;;;4.65;0.95;;;;;;;-0.16;88.73;97939.78;4913620;29;20646;-79
2021/01/22 06:03:57;;;;;;;2.38;1.05;;;;;;;-0.06;88.61;97962.16;4938268;29;20016;-78
2021/01/22 06:06:43;;;;;;;3.28;0.90;;;;;;;0.15;88.57;97975.75;4927514;29;20114;-80
2021/01/22 06:09:49;;;;;;;3.53;1.15;;;;;;;0.24;88.80;97984.16;4947908;28;20035;-83
2021/01/22 06:12:14;;;;;;;2.83;0.80;;;;;;;0.17;88.62;97963.66;4922004;29;20374;-81
2021/01/22 06:21:56;;;;;;;;;;;;;;;;;;;;;
2021/01/22 06:27:34;;;;;;;7.75;1.70;;;;;;;0.28;89.48;97979.88;4884369;29;20534;-80
2021/01/22 06:33:42;;;;;;;1.98;1.27;;;;;;;0.37;88.50;97983.69;4879190;29;20158;-80
2021/01/22 06:36:10;;;;;;;6.32;1.00;;;;;;;0.37;89.37;97978.31;4860361;29;20048;-77
2021/01/22 06:39:12;;;;;;;1.98;1.35;;;;;;;0.23;88.48;97963.69;4856718;29;20033;-80
2021/01/22 06:44:46;;;;;;;3.10;1.05;;;;;;;0.41;89.01;97976.72;4937159;29;20051;-80
2021/01/22 06:50:50;;;;;;;1.52;1.27;;;;;;;0.62;89.42;98001.84;4857048;29;20033;-79
2021/01/22 06:53:52;;;;;;;1.45;1.30;;;;;;;0.66;89.58;98018.31;4853311;29;20094;-77
2021/01/22 06:56:56;;;;;;;;;;;;;;;;;;;;;
2021/01/22 07:06:58;;;;;;;3.17;0.90;;;;;;;0.67;89.72;98025.28;4855877;29;20495;-79
2021/01/22 07:17:00;;;;;;;4.20;1.52;;;;;;;0.60;89.04;98025.53;4910749;29;20047;-79
2021/01/22 07:22:59;;;;;;;2.65;1.27;;;;;;;0.35;89.64;98001.94;4912858;29;20054;-79
2021/01/22 07:25:40;;;;;;;2.83;1.67;;;;;;;0.58;89.03;98037.59;4916657;29;20042;-78
2021/01/22 07:28:43;;;;;;;3.03;1.45;;;;;;;0.55;88.06;98041.63;4907784;29;20044;-78
2021/01/22 07:36:13;;;;;;;1.45;1.35;;;;;;;0.42;88.40;98050.94;4915899;29;20215;-77
2021/01/22 07:38:21;;;;;;;3.55;1.58;;;;;;;0.09;88.88;98011.69;4930392;29;20031;-79
2021/01/22 07:49:56;;;;;;;5.68;1.77;;;;;;;0.14;88.27;98047.50;5531495;23;20122;-78
2021/01/22 08:02:33;;;;;;;3.10;1.27;;;;;;;0.43;89.07;98087.53;4905941;29;20044;-82
2021/01/22 08:05:39;;;;;;;6.65;1.55;;;;;;;0.47;89.90;98096.69;4903499;29;20048;-84
2021/01/22 08:08:40;;;;;;;5.40;2.00;;;;;;;0.48;89.92;98108.25;4890210;29;20036;-84
2021/01/22 08:18:12;;;;;;;9.90;1.52;;;;;;;0.64;89.86;98106.50;4867462;29;20033;-84
2021/01/22 08:20:51;;;;;;;8.27;2.00;;;;;;;0.57;90.17;98095.16;4893429;29;20031;-82
2021/01/22 08:23:20;;;;;;;6.38;1.95;;;;;;;0.37;89.51;98061.66;4902674;29;20024;-82
2021/01/22 08:25:52;;;;;;;1.58;1.48;;;;;;;0.57;89.13;98089.75;4906483;29;20092;-78
2021/01/22 08:28:25;;;;;;;1.90;1.73;;;;;;;0.62;89.02;98089.81;4895417;29;20048;-83
2021/01/22 08:30:51;;;;;;;17.92;2.08;;;;;;;0.71;89.47;98107.09;4937640;29;20024;-84
2021/01/22 08:33:31;;;;;;;1.40;1.40;;;;;;;0.81;89.05;98112.53;4935626;29;20038;-80
2021/01/22 08:36:38;;;;;;;6.85;1.27;;;;;;;0.94;89.76;98115.88;4900990;29;20027;-79
2021/01/22 08:39:24;;;;;;;3.30;1.40;;;;;;;0.86;88.88;98109.06;4870401;29;20054;-78
2021/01/22 08:42:54;;;;;;;;;;;;;;;;;;;;;
2021/01/22 08:45:24;;;;;;;3.58;1.60;;;;;;;0.83;88.30;98099.66;4905788;29;20070;-79
2021/01/22 08:47:57;;;;;;;7.15;1.77;;;;;;;0.84;88.45;98109.31;4912492;29;20063;-79
2021/01/22 08:51:28;;;;;;;1.92;1.30;;;;;;;1.12;88.53;98139.66;4903328;28;20519;-81
2021/01/22 08:58:35;;;;;;;4.97;1.23;;;;;;;1.22;88.13;98147.78;4913063;29;20088;-88
2021/01/22 09:08:59;;;;;;;;;;;;;;;;;;;;;
2021/01/22 09:15:24;;;;;;;1.27;1.20;;;;;;;1.57;88.73;98172.47;4855259;29;20094;-81
2021/01/22 09:18:30;;;;;;;2.17;1.25;;;;;;;1.49;88.87;98154.94;4845754;29;20048;-83
2021/01/22 09:24:27;;;;;;;1.25;1.17;;;;;;;1.47;89.21;98122.06;4870243;29;20033;-84
2021/01/22 09:26:53;;;;;;;1.80;1.70;;;;;;;2.04;89.15;98184.25;4853047;29;20122;-82
2021/01/22 09:33:33;;;;;;;2.00;1.90;;;;;;;4.66;90.36;98175.59;4828648;29;20478;-82
2021/01/22 10:08:39;;;;;;;1.92;1.00;;;;;;;12.63;69.55;98213.16;4673212;30;20525;-77
2021/01/22 10:14:37;;;;;;;0.68;0.60;;;;;;;13.18;69.50;98219.47;4759438;29;20038;-81
2021/01/22 10:27:23;;;;;;;1.35;0.30;;;;;;;14.62;64.41;98249.00;4764428;29;20060;-83
2021/01/22 10:30:47;;;;;;;;;;;;;;;;;;;;;
2021/01/22 10:33:22;;;;;;;0.40;0.30;;;;;;;15.32;65.59;98236.09;4810546;29;20110;-80
2021/01/22 10:36:21;;;;;;;0.60;0.50;;;;;;;16.42;65.81;98238.50;4784985;29;20050;-83
2021/01/22 10:38:46;;;;;;;2.33;0.32;;;;;;;16.67;61.32;98250.09;4864891;29;20044;-80
2021/01/22 10:41:14;;;;;;;3.33;0.70;;;;;;;17.09;61.31;98268.81;4895200;29;20061;-78
2021/01/22 10:43:43;;;;;;;2.13;0.95;;;;;;;17.25;58.68;98258.47;4909089;29;20043;-79
2021/01/22 10:46:11;;;;;;;2.13;1.05;;;;;;;17.33;59.98;98242.84;4905503;29;20036;-79
2021/01/22 10:48:37;;;;;;;3.75;3.22;;;;;;;17.70;57.95;98272.00;4889301;29;20063;-78
2021/01/22 10:51:02;;;;;;;6.55;3.58;;;;;;;17.80;57.82;98263.09;4904645;29;20037;-77
2021/01/22 10:53:28;;;;;;;5.72;3.10;;;;;;;17.91;57.58;98250.28;4868426;29;20037;-79
2021/01/22 10:55:54;;;;;;;5.72;3.58;;;;;;;18.10;56.34;98262.44;4919901;29;20107;-79
2021/01/22 10:58:19;;;;;;;4.32;4.05;;;;;;;18.28;58.75;98263.56;4918821;29;20024;-79
2021/01/22 11:00:45;;;;;;;5.95;3.30;;;;;;;18.60;57.01;98260.50;4915893;29;20079;-77
2021/01/22 11:03:10;;;;;;;2.38;2.17;;;;;;;18.86;55.99;98245.03;4922021;29;20041;-81
2021/01/22 11:05:36;;;;;;;4.28;3.97;;;;;;;19.23;57.22;98255.44;4894550;29;20031;-79
2021/01/22 11:08:02;;;;;;;5.90;5.55;;;;;;;19.66;55.83;98255.91;4932392;29;20032;-80
2021/01/22 11:10:27;;;;;;;9.32;6.82;;;;;;;19.97;55.60;98251.09;4916971;29;20032;-81
2021/01/22 11:12:53;;;;;;;6.13;5.68;;;;;;;20.45;54.95;98266.97;4909917;29;20031;-78
2021/01/22 11:15:29;;;;;;;;;;;;;;;;;;;;;
2021/01/22 11:17:57;;;;;;;20.38;13.50;;;;;;;20.79;54.57;98246.59;4920793;29;21718;-75
2021/01/22 11:20:32;;;;;;;22.85;13.85;;;;;;;21.04;54.44;98255.06;4918678;29;20118;-81
2021/01/22 11:22:59;;;;;;;20.55;14.88;;;;;;;21.38;55.15;98255.59;4901030;29;20116;-80
2021/01/22 11:25:25;;;;;;;23.25;12.93;;;;;;;21.77;52.90;98243.84;4917556;29;20036;-80
2021/01/22 11:27:55;;;;;;;8.50;7.70;;;;;;;22.22;54.65;98239.88;4939258;29;20028;-85
2021/01/22 11:31:02;;;;;;;3.50;3.20;;;;;;;22.87;51.33;98273.25;4923867;29;20035;-88
2021/01/22 11:33:33;;;;;;;1.48;1.40;;;;;;;22.95;53.03;98263.69;4924859;29;20028;-87
2021/01/22 11:35:59;;;;;;;1.13;1.02;;;;;;;23.33;51.98;98266.78;4905328;29;20043;-88
2021/01/22 11:38:32;;;;;;;1.20;0.52;;;;;;;23.57;48.26;98264.28;4927578;29;20028;-85
2021/01/22 11:40:57;;;;;;;0.75;0.50;;;;;;;23.58;51.89;98268.66;4930585;29;20036;-85
2021/01/22 11:43:23;;;;;;;0.75;0.55;;;;;;;23.85;52.73;98258.53;4916501;29;20087;-85
2021/01/22 11:46:37;;;;;;;0.40;0.40;;;;;;;24.30;53.29;98246.69;4912845;29;20039;-86
2021/01/22 11:49:57;;;;;;;;;;;;;;;;;;;;;
2021/01/22 11:52:51;;;;;;;1.27;0.65;;;;;;;25.30;52.52;98268.47;4921493;29;20337;-86
2021/01/22 11:55:58;;;;;;;;;;;;;;;;;;;;;
2021/01/22 12:02:01;;;;;;;0.93;0.40;;;;;;;25.65;49.47;98260.84;4912173;29;20043;-87
2021/01/22 12:04:28;;;;;;;2.75;0.40;;;;;;;25.66;47.29;98263.22;4924159;29;20028;-88
2021/01/22 12:07:11;;;;;;;0.93;0.43;;;;;;;25.63;48.90;98235.28;4909162;29;20024;-86
2021/01/22 12:09:46;;;;;;;0.60;0.60;;;;;;;25.47;43.98;98235.91;4918962;29;20407;-87
2021/01/22 12:12:48;;;;;;;2.97;0.60;;;;;;;25.07;45.89;98227.97;4939169;29;20033;-88
2021/01/22 12:15:17;;;;;;;0.60;0.30;;;;;;;25.00;47.79;98251.22;4846964;29;20030;-81
2021/01/22 12:17:43;;;;;;;0.45;0.38;;;;;;;25.00;47.46;98237.25;4885959;29;20399;-85
2021/01/22 12:20:09;;;;;;;0.20;0.20;;;;;;;25.17;45.00;98241.03;4900930;29;20067;-82
2021/01/22 12:22:46;;;;;;;0.75;0.30;;;;;;;24.99;45.11;98240.47;4890472;29;20037;-81
2021/01/22 12:25:12;;;;;;;0.55;0.22;;;;;;;24.89;44.58;98234.56;4914056;29;20036;-84
2021/01/22 12:28:01;;;;;;;0.90;0.35;;;;;;;24.49;45.36;98217.38;4928178;29;20024;-80
2021/01/22 12:37:20;;;;;;;0.30;0.28;;;;;;;24.76;45.19;98247.47;4867181;29;20091;-83
2021/01/22 12:40:31;;;;;;;1.48;0.20;;;;;;;25.27;46.97;98237.31;4930118;29;20024;-83
2021/01/22 12:43:23;;;;;;;0.30;0.20;;;;;;;25.83;48.64;98244.59;4831205;29;20052;-83
2021/01/22 12:46:28;;;;;;;;;;;;;;;;;;;;;
2021/01/22 12:49:49;;;;;;;0.22;0.20;;;;;;;27.06;45.69;98217.31;4821430;29;20116;-84
2021/01/22 12:56:17;;;;;;;0.17;0.17;;;;;;;27.46;42.66;98220.13;4880457;29;20112;-86
2021/01/22 12:58:46;;;;;;;0.45;0.20;;;;;;;27.24;46.17;98206.50;4871706;29;20048;-86
2021/01/22 13:01:17;;;;;;;5.30;0.40;;;;;;;27.27;43.42;98196.44;4911970;29;20036;-86
2021/01/22 13:04:21;;;;;;;0.50;0.38;;;;;;;27.64;41.56;98181.22;4904689;29;20025;-85
2021/01/22 13:10:56;;;;;;;;;;;;;;;;;;;;;
2021/01/22 13:13:52;;;;;;;0.47;0.30;;;;;;;24.60;47.26;98183.00;4857061;29;20130;-86
2021/01/22 13:16:27;;;;;;;1.17;0.65;;;;;;;22.81;50.06;98170.59;4845695;29;20046;-85
2021/01/22 13:18:58;;;;;;;0.75;0.28;;;;;;;21.98;50.98;98172.72;4911606;29;20032;-87
2021/01/22 13:21:24;;;;;;;0.40;0.17;;;;;;;20.89;53.26;98184.75;4902271;29;20047;-79
2021/01/22 13:37:51;;;;;;;0.95;0.40;;;;;;;16.83;65.04;98148.75;4819196;29;20037;-77
2021/01/22 15:14:10;;;;;;;0.50;0.20;;;;;;;12.34;64.72;98149.00;4984647;23;20079;-79
2021/01/22 15:16:35;;;;;;;1.20;0.32;;;;;;;11.88;66.15;98132.34;4927047;29;20035;-77
2021/01/22 15:19:01;;;;;;;0.32;0.20;;;;;;;11.59;67.53;98141.34;4895203;29;20369;-78
2021/01/22 15:21:30;;;;;;;1.75;0.22;;;;;;;11.26;69.19;98117.31;4899052;29;20107;-77
2021/01/22 15:24:11;;;;;;;0.10;0.10;;;;;;;11.20;70.80;98126.84;4903144;29;20066;-78
2021/01/22 15:27:20;;;;;;;0.00;0.00;;;;;;;11.04;71.92;98114.78;4915893;29;20035;-79
2021/01/22 15:46:32;;;;;;;5.45;0.43;;;;;;;10.42;67.67;98138.66;4832603;29;20037;-79
2021/01/22 15:49:39;;;;;;;0.40;0.20;;;;;;;10.45;65.39;98148.94;4830801;29;20030;-78
2021/01/22 15:52:53;;;;;;;0.95;0.25;;;;;;;10.30;64.04;98131.06;4805206;29;20042;-85
2021/01/22 15:55:26;;;;;;;0.43;0.20;;;;;;;10.04;64.46;98133.75;4832939;29;20034;-79
2021/01/22 15:58:11;;;;;;;0.35;0.20;;;;;;;9.65;63.38;98141.69;4905486;29;20035;-81
2021/01/22 16:00:36;;;;;;;0.22;0.10;;;;;;;9.14;66.04;98118.50;4899817;29;20036;-83
2021/01/22 16:03:02;;;;;;;0.10;0.10;;;;;;;8.87;67.56;98131.19;4906304;29;20476;-77
2021/01/22 16:05:28;;;;;;;0.22;0.10;;;;;;;8.56;67.33;98126.50;4897268;29;20051;-78
2021/01/22 16:07:53;;;;;;;2.15;0.30;;;;;;;8.38;68.59;98130.94;4905076;29;20032;-78
2021/01/22 16:10:19;;;;;;;0.50;0.50;;;;;;;8.19;69.86;98120.22;4918899;29;20020;-81
2021/01/22 16:12:45;;;;;;;0.28;0.28;;;;;;;8.03;70.44;98119.72;4919114;29;20036;-79
2021/01/22 16:15:23;;;;;;;0.95;0.25;;;;;;;7.97;70.21;98131.84;4902024;29;20063;-79
2021/01/22 16:17:50;;;;;;;0.50;0.20;;;;;;;7.65;71.02;98109.09;4940455;29;20395;-76
2021/01/22 16:20:17;;;;;;;0.28;0.15;;;;;;;7.66;72.19;98116.16;4940120;29;20090;-78
2021/01/22 16:22:46;;;;;;;1.27;0.30;;;;;;;7.67;72.56;98117.78;4942255;29;20088;-78
2021/01/22 16:25:39;;;;;;;0.20;0.20;;;;;;;7.40;72.33;98085.94;4923911;29;20054;-78
2021/01/22 16:28:08;;;;;;;0.25;0.20;;;;;;;7.24;73.05;98066.41;4927410;29;20039;-84
2021/01/22 16:30:36;;;;;;;0.20;0.20;;;;;;;7.32;72.54;98106.50;4942196;29;20479;-84
2021/01/22 16:33:26;;;;;;;0.93;0.50;;;;;;;7.15;73.21;98113.34;4934745;29;20027;-81
2021/01/22 16:36:05;;;;;;;;;;;;;;;;;;;;;
2021/01/22 16:38:43;;;;;;;;;;;;;;;;;;;;;
2021/01/22 16:41:11;;;;;;;3.58;0.47;;;;;;;6.78;75.13;98093.31;4920854;29;21608;-79
2021/01/22 16:43:44;;;;;;;0.50;0.35;;;;;;;6.78;75.28;98101.47;4919656;29;20038;-79
2021/01/22 16:46:12;;;;;;;3.90;0.80;;;;;;;6.94;75.07;98120.22;4924569;29;20039;-77
2021/01/22 16:48:47;;;;;;;0.57;0.20;;;;;;;6.94;74.94;98120.22;4927970;28;20043;-74
2021/01/22 16:51:12;;;;;;;1.65;0.60;;;;;;;6.90;74.16;98127.38;4917055;29;20027;-78
2021/01/22 16:53:49;;;;;;;1.27;0.63;;;;;;;6.79;74.48;98118.56;4920598;29;20114;-77
2021/01/22 16:56:14;;;;;;;0.80;0.80;;;;;;;6.63;77.24;98116.13;4926431;29;20088;-79
2021/01/22 16:58:42;;;;;;;1.40;0.47;;;;;;;6.40;78.21;98131.41;4934864;29;20036;-79
2021/01/22 17:01:08;;;;;;;0.30;0.20;;;;;;;6.27;79.10;98149.22;4950009;29;20035;-77
2021/01/22 17:03:44;;;;;;;0.63;0.30;;;;;;;6.05;80.47;98130.81;4923692;29;20031;-79
2021/01/22 17:06:17;;;;;;;;;;;;;;;6.03;80.75;98127.59;4914662;29;20028;-79
2021/01/22 17:08:49;;;;;;;0.47;0.40;;;;;;;5.77;81.38;98111.63;4921258;29;19919;-80
2021/01/22 17:11:25;;;;;;;0.50;0.50;;;;;;;5.56;81.29;98107.53;4938926;29;20521;-80
2021/01/22 17:13:50;;;;;;;0.52;0.30;;;;;;;5.42;81.94;98123.72;4931481;28;20052;-79
2021/01/22 17:16:45;;;;;;;0.55;0.43;;;;;;;5.25;81.58;98124.16;4916047;29;20036;-78
2021/01/22 17:19:15;;;;;;;0.50;0.50;;;;;;;5.05;81.99;98120.56;4912801;29;20036;-77
2021/01/22 17:22:42;;;;;;;0.50;0.50;;;;;;;4.83;82.33;98112.09;4911338;29;20046;-82
2021/01/22 17:25:50;;;;;;;0.80;0.60;;;;;;;4.61;82.96;98089.00;4911535;29;20050;-80
2021/01/22 17:31:48;;;;;;;;;;;;;;;;;;;;;
2021/01/22 17:34:54;;;;;;;1.85;1.10;;;;;;;4.62;83.65;98128.53;4939606;29;20107;-79
2021/01/22 17:48:17;;;;;;;;;;;;;;;;;;;;;
2021/01/22 17:57:49;;;;;;;0.65;0.30;;;;;;;4.35;85.17;98121.69;4823993;29;20042;-79
2021/01/22 18:03:56;;;;;;;0.80;0.52;;;;;;;4.51;84.92;98137.81;4914038;29;20042;-80
2021/01/22 18:06:58;;;;;;;0.50;0.50;;;;;;;4.59;84.45;98148.03;4884136;29;20514;-79
2021/01/22 18:12:22;;;;;;;0.47;0.37;;;;;;;4.35;83.87;98129.81;4918425;29;20040;-77
2021/01/22 18:14:48;;;;;;;0.63;0.43;;;;;;;4.35;84.25;98145.22;4936221;28;20302;-79
2021/01/22 18:17:13;;;;;;;2.38;0.70;;;;;;;4.12;84.10;98130.50;4940229;29;20063;-76
2021/01/22 18:19:39;;;;;;;0.50;0.50;;;;;;;4.24;84.33;98149.91;4940699;29;20039;-79
2021/01/22 18:22:39;;;;;;;0.68;0.68;;;;;;;4.31;84.68;98161.22;4934341;23;20108;-83
2021/01/22 18:25:24;;;;;;;3.03;0.90;;;;;;;4.20;84.64;98138.00;4922279;29;20102;-81
2021/01/22 18:28:01;;;;;;;1.20;0.77;;;;;;;4.26;84.83;98147.72;4917837;29;20087;-83
2021/01/22 18:30:37;;;;;;;0.70;0.65;;;;;;;4.15;84.39;98132.66;4918542;29;20036;-81
2021/01/22 18:33:09;;;;;;;0.93;0.60;;;;;;;4.37;84.72;98162.78;4935782;29;20047;-86
2021/01/22 18:35:47;;;;;;;0.30;0.30;;;;;;;4.40;84.81;98161.44;4920867;29;20036;-85
2021/01/22 18:38:37;;;;;;;;;;;;;;;;;;;;;
2021/01/22 18:41:08;;;;;;;0.47;0.32;;;;;;;4.10;83.62;98113.72;4936308;29;20035;-81
2021/01/22 18:43:34;;;;;;;0.30;0.30;;;;;;;4.01;83.80;98119.72;4931015;29;20028;-82
2021/01/22 18:46:00;;;;;;;0.40;0.40;;;;;;;4.01;83.43;98125.13;4919770;29;20462;-83
2021/01/22 18:51:45;;;;;;;2.55;0.40;;;;;;;4.17;83.76;98162.94;4943581;29;20046;-85
2021/01/22 18:54:24;;;;;;;0.50;0.50;;;;;;;4.18;84.27;98151.03;4922608;29;20036;-86
2021/01/22 18:56:52;;;;;;;1.00;0.85;;;;;;;4.33;84.10;98169.84;4903740;29;20050;-87
2021/01/22 18:59:21;;;;;;;0.47;0.40;;;;;;;4.40;84.25;98168.75;4914776;29;20037;-89
2021/01/22 19:01:48;;;;;;;0.73;0.60;;;;;;;4.39;83.74;98178.75;4920270;29;20062;-79
2021/01/22 19:04:24;;;;;;;0.50;0.50;;;;;;;4.30;84.31;98162.31;4937645;29;20108;-84